Time;durP1;ratioP1;P1;durP2;ratioP2;P2;SDS_P1;SDS_P2;PMS_P1;PMS_P2;Temp;Humidity;BMP_temperature;BMP_pressure;BME280_temperature;BME280_humidity;BME280_pressure;Samples;Min_cycle;Max_cycle;Signal;HPM_P1;HPM_P2
2024/02/19 00:01:09;;;;;;;1.95;1.02;;;;;;;8.86;81.99;99521.56;4905876;28;103874;-64
2024/02/19 00:03:37;;;;;;;2.42;1.00;;;;;;;8.81;82.22;99523.78;4904152;28;103947;-64
2024/02/19 00:06:06;;;;;;;2.70;1.55;;;;;;;8.68;82.89;99535.41;4904815;28;103195;-65
2024/02/19 00:08:34;;;;;;;2.33;1.70;;;;;;;8.61;82.70;99532.47;4902691;28;102696;-66
2024/02/19 00:11:03;;;;;;;2.60;1.40;;;;;;;8.67;82.78;99538.19;4897521;28;104046;-67
2024/02/19 00:13:31;;;;;;;1.95;1.40;;;;;;;8.81;82.96;99529.06;4895355;28;103996;-67
2024/02/19 00:15:59;;;;;;;1.77;1.20;;;;;;;8.76;82.88;99543.53;4905561;28;103254;-66
2024/02/19 00:18:30;;;;;;;1.20;1.10;;;;;;;8.85;82.13;99535.75;4902588;28;102638;-66
2024/02/19 00:20:59;;;;;;;1.40;0.95;;;;;;;8.90;82.21;99538.81;4890488;28;104204;-65
2024/02/19 00:23:27;;;;;;;1.40;0.60;;;;;;;8.79;81.36;99532.66;4905151;28;103962;-66
2024/02/19 00:25:55;;;;;;;1.02;0.50;;;;;;;8.89;81.64;99522.09;4890500;28;104201;-66
2024/02/19 00:28:24;;;;;;;0.47;0.47;;;;;;;8.92;81.41;99531.56;4891140;28;102859;-67
2024/02/19 00:30:53;;;;;;;2.00;0.40;;;;;;;8.88;81.71;99530.16;4905448;28;102610;-66
2024/02/19 00:33:21;;;;;;;2.65;0.40;;;;;;;8.87;82.02;99525.84;4898461;28;103429;-65
2024/02/19 00:35:52;;;;;;;0.40;0.40;;;;;;;8.92;81.90;99521.00;4904646;28;103214;-66
2024/02/19 00:38:19;;;;;;;0.80;0.40;;;;;;;8.73;81.63;99525.28;4903212;28;102645;-66
2024/02/19 00:40:47;;;;;;;3.53;0.47;;;;;;;8.66;81.77;99518.88;4903704;28;103991;-65
2024/02/19 00:43:16;;;;;;;0.43;0.28;;;;;;;8.63;82.02;99533.19;4903894;28;103281;-66
2024/02/19 00:45:45;;;;;;;0.35;0.22;;;;;;;8.79;81.56;99534.50;4896671;28;103215;-66
2024/02/19 00:48:13;;;;;;;0.20;0.20;;;;;;;8.76;81.50;99540.88;4887320;28;102615;-66
2024/02/19 00:50:44;;;;;;;0.20;0.20;;;;;;;8.71;81.84;99529.88;4905038;28;102682;-66
2024/02/19 00:53:12;;;;;;;0.30;0.10;;;;;;;8.68;81.55;99540.69;4886896;28;103191;-66
2024/02/19 00:55:40;;;;;;;0.10;0.10;;;;;;;8.72;81.10;99525.44;4904694;28;103311;-66
2024/02/19 00:58:08;;;;;;;0.13;0.13;;;;;;;8.66;81.63;99526.81;4904089;28;102628;-66
2024/02/19 01:00:36;;;;;;;2.83;0.30;;;;;;;8.70;81.41;99528.22;4903537;28;103940;-66
2024/02/19 01:03:06;;;;;;;0.55;0.40;;;;;;;8.70;81.17;99530.84;4905129;28;103301;-66
2024/02/19 01:05:34;;;;;;;0.75;0.30;;;;;;;8.63;81.13;99527.91;4902323;28;104004;-66
2024/02/19 01:08:03;;;;;;;0.50;0.50;;;;;;;8.61;81.52;99539.59;4905381;28;104436;-67
2024/02/19 01:10:31;;;;;;;0.20;0.20;;;;;;;8.62;81.44;99542.09;4903648;28;104230;-65
2024/02/19 01:12:59;;;;;;;0.38;0.30;;;;;;;8.62;81.71;99541.25;4903574;28;103591;-66
2024/02/19 01:15:29;;;;;;;0.75;0.30;;;;;;;8.56;81.38;99541.78;4901588;28;103402;-65
2024/02/19 01:17:58;;;;;;;0.75;0.43;;;;;;;8.65;81.75;99545.41;4904539;28;102735;-66
2024/02/19 01:20:27;;;;;;;0.30;0.25;;;;;;;8.75;81.54;99540.97;4905023;28;102828;-70
2024/02/19 01:22:55;;;;;;;0.85;0.30;;;;;;;8.75;81.44;99538.34;4902515;28;103564;-69
2024/02/19 01:25:23;;;;;;;0.40;0.40;;;;;;;8.71;81.60;99539.59;4884331;28;103389;-70
2024/02/19 01:27:51;;;;;;;0.47;0.35;;;;;;;8.66;81.48;99542.66;4901917;28;102676;-69
2024/02/19 01:30:19;;;;;;;0.80;0.40;;;;;;;8.72;81.83;99542.09;4903789;28;102740;-70
2024/02/19 01:32:47;;;;;;;0.43;0.30;;;;;;;8.66;81.40;99545.28;4904780;28;103393;-70
2024/02/19 01:35:15;;;;;;;1.05;0.70;;;;;;;8.68;81.21;99543.34;4904072;28;103311;-70
2024/02/19 01:37:45;;;;;;;1.92;0.70;;;;;;;8.60;81.25;99532.63;4896410;28;102636;-70
2024/02/19 01:40:13;;;;;;;0.75;0.73;;;;;;;8.60;81.24;99525.53;4903272;28;104051;-70
2024/02/19 01:42:41;;;;;;;1.27;0.70;;;;;;;8.62;81.24;99535.97;4903692;28;104125;-70
2024/02/19 01:45:24;;;;;;;1.73;0.70;;;;;;;8.74;81.13;99519.03;4901053;28;103286;-70
2024/02/19 01:47:53;;;;;;;0.60;0.55;;;;;;;8.60;82.10;99516.78;4902279;28;102520;-70
2024/02/19 01:50:21;;;;;;;2.13;0.70;;;;;;;8.61;81.52;99518.47;4902668;28;103089;-70
2024/02/19 01:52:52;;;;;;;0.95;0.80;;;;;;;8.60;81.05;99517.59;4895894;28;103314;-70
2024/02/19 01:55:22;;;;;;;1.73;0.70;;;;;;;8.64;80.46;99520.81;4904035;28;103859;-70
2024/02/19 01:57:51;;;;;;;0.98;0.70;;;;;;;8.66;80.88;99521.53;4904453;28;102602;-70
2024/02/19 02:00:20;;;;;;;1.65;0.93;;;;;;;8.64;80.79;99534.03;4902342;28;104035;-69
2024/02/19 02:02:49;;;;;;;1.10;0.65;;;;;;;8.63;81.15;99532.34;4892278;28;103482;-70
2024/02/19 02:05:17;;;;;;;1.02;0.70;;;;;;;8.60;81.45;99533.44;4897196;28;103281;-70
2024/02/19 02:07:45;;;;;;;3.58;0.90;;;;;;;8.65;80.71;99534.84;4904105;28;102652;-70
2024/02/19 02:10:14;;;;;;;1.08;0.80;;;;;;;8.71;81.12;99529.88;4903302;28;102839;-71
2024/02/19 02:12:45;;;;;;;1.20;1.00;;;;;;;8.62;81.35;99535.97;4903332;28;103260;-70
2024/02/19 02:15:13;;;;;;;1.25;0.98;;;;;;;8.61;81.17;99534.31;4900477;28;103387;-70
2024/02/19 02:17:43;;;;;;;3.05;0.90;;;;;;;8.55;81.46;99526.91;4903837;28;102694;-70
2024/02/19 02:20:12;;;;;;;1.27;0.70;;;;;;;8.62;81.56;99534.16;4901353;28;103653;-71
2024/02/19 02:22:42;;;;;;;3.33;0.85;;;;;;;8.54;81.57;99538.44;4893653;28;103008;-71
2024/02/19 02:25:10;;;;;;;3.25;0.88;;;;;;;8.56;82.08;99536.50;4901448;28;103356;-71
2024/02/19 02:27:39;;;;;;;1.30;0.90;;;;;;;8.52;82.30;99535.09;4900232;28;102863;-70
2024/02/19 02:30:08;;;;;;;1.85;1.10;;;;;;;8.52;82.49;99528.00;4914682;28;104388;-71
2024/02/19 02:32:37;;;;;;;2.58;1.15;;;;;;;8.50;82.69;99526.47;4895438;28;104118;-71
2024/02/19 02:35:05;;;;;;;3.40;1.20;;;;;;;8.42;82.79;99525.31;4900469;28;103306;-71
2024/02/19 02:37:33;;;;;;;2.25;1.00;;;;;;;8.53;82.11;99532.34;4880645;28;102733;-71
2024/02/19 02:40:01;;;;;;;3.70;1.33;;;;;;;8.48;82.23;99528.44;4902672;28;102792;-71
2024/02/19 02:42:30;;;;;;;1.88;1.20;;;;;;;8.53;82.04;99536.75;4897873;28;104221;-70
2024/02/19 02:44:59;;;;;;;3.15;1.17;;;;;;;8.54;82.45;99533.16;4903574;28;104417;-70
2024/02/19 02:47:27;;;;;;;4.00;1.33;;;;;;;8.57;82.00;99532.91;4903255;28;103375;-70
2024/02/19 02:49:55;;;;;;;2.90;1.40;;;;;;;8.42;82.38;99535.03;4902835;28;103901;-70
2024/02/19 02:52:23;;;;;;;3.28;1.33;;;;;;;8.47;82.95;99527.56;4901208;28;103214;-70
2024/02/19 02:54:51;;;;;;;7.38;1.58;;;;;;;8.48;82.49;99536.34;4903734;28;103207;-70
2024/02/19 02:57:19;;;;;;;4.60;1.20;;;;;;;8.50;82.61;99529.13;4903563;28;102684;-71
2024/02/19 02:59:47;;;;;;;2.65;1.45;;;;;;;8.46;83.39;99537.31;4899804;28;103229;-71
2024/02/19 03:02:16;;;;;;;3.47;1.23;;;;;;;8.42;83.55;99525.31;4885852;28;103943;-70
2024/02/19 03:04:44;;;;;;;2.35;1.45;;;;;;;8.42;83.21;99525.31;4900910;28;103345;-71
2024/02/19 03:07:12;;;;;;;4.97;1.40;;;;;;;8.52;83.27;99529.84;4901921;28;102636;-71
2024/02/19 03:09:40;;;;;;;3.88;1.50;;;;;;;8.60;83.13;99532.63;4901378;28;102714;-71
2024/02/19 03:12:09;;;;;;;2.70;1.13;;;;;;;8.63;83.22;99527.91;4898875;28;103301;-71
2024/02/19 03:14:39;;;;;;;2.85;1.40;;;;;;;8.61;83.15;99529.03;4893296;28;103311;-71
2024/02/19 03:17:08;;;;;;;3.00;1.48;;;;;;;8.55;83.10;99530.38;4901251;28;104665;-71
2024/02/19 03:19:38;;;;;;;2.08;1.20;;;;;;;8.70;83.00;99528.22;4894118;28;102946;-70
2024/02/19 03:22:06;;;;;;;3.97;1.30;;;;;;;8.51;83.87;99530.78;4896654;28;103992;-71
2024/02/19 03:24:34;;;;;;;2.45;1.30;;;;;;;8.57;83.16;99528.44;4901016;28;103228;-66
2024/02/19 03:27:04;;;;;;;2.65;1.15;;;;;;;8.59;83.56;99530.94;4894929;28;102638;-67
2024/02/19 03:29:32;;;;;;;2.80;1.30;;;;;;;8.57;83.41;99527.63;4900854;28;104157;-66
2024/02/19 03:32:02;;;;;;;2.05;1.25;;;;;;;8.54;83.42;99533.16;4900275;28;104323;-66
2024/02/19 03:34:30;;;;;;;4.10;1.42;;;;;;;8.60;83.53;99532.63;4900564;28;102960;-66
2024/02/19 03:36:59;;;;;;;3.47;1.42;;;;;;;8.62;83.92;99530.69;4900944;28;102664;-66
2024/02/19 03:39:28;;;;;;;3.25;1.63;;;;;;;8.51;83.75;99528.97;4900639;28;104227;-66
2024/02/19 03:41:56;;;;;;;1.80;1.40;;;;;;;8.56;83.78;99532.03;4892442;28;104203;-67
2024/02/19 03:44:24;;;;;;;3.80;1.73;;;;;;;8.62;83.50;99535.97;4901111;28;103277;-66
2024/02/19 03:46:52;;;;;;;4.43;1.77;;;;;;;8.54;83.65;99527.88;4882025;28;102690;-66
2024/02/19 03:49:20;;;;;;;5.70;2.20;;;;;;;8.56;83.68;99534.69;4893996;28;103990;-66
2024/02/19 03:51:48;;;;;;;3.53;2.10;;;;;;;8.60;83.41;99535.25;4868589;28;104526;-66
2024/02/19 03:54:18;;;;;;;4.35;1.80;;;;;;;8.60;82.91;99530.81;4890498;28;104351;-67
2024/02/19 03:56:46;;;;;;;6.15;2.33;;;;;;;8.48;83.24;99534.53;4899459;28;102857;-66
2024/02/19 03:59:14;;;;;;;3.22;1.90;;;;;;;8.51;83.22;99542.19;4896403;28;103558;-66
2024/02/19 04:01:42;;;;;;;3.53;2.20;;;;;;;8.53;83.48;99542.91;4901100;28;103648;-66
2024/02/19 04:04:10;;;;;;;2.35;1.60;;;;;;;8.62;82.99;99541.25;4902805;28;103204;-66
2024/02/19 04:06:38;;;;;;;3.10;1.73;;;;;;;8.64;83.10;99539.31;4904223;28;102769;-66
2024/02/19 04:09:06;;;;;;;2.92;1.80;;;;;;;8.53;83.86;99536.75;4909135;28;103990;-67
2024/02/19 04:11:36;;;;;;;4.03;2.10;;;;;;;8.50;83.68;99548.41;4905535;28;102970;-66
2024/02/19 04:14:04;;;;;;;3.53;1.70;;;;;;;8.55;83.81;99545.41;4894471;28;104400;-66
2024/02/19 04:16:32;;;;;;;5.82;1.70;;;;;;;8.43;83.80;99548.09;4904585;28;102652;-66
2024/02/19 04:19:00;;;;;;;4.25;1.45;;;;;;;8.53;83.81;99542.03;4902018;28;102658;-66
2024/02/19 04:21:28;;;;;;;4.95;1.60;;;;;;;8.58;83.83;99556.53;4904173;28;102993;-66
2024/02/19 04:23:57;;;;;;;2.88;1.58;;;;;;;8.63;83.69;99553.47;4904001;28;103222;-66
2024/02/19 04:26:24;;;;;;;4.88;2.10;;;;;;;8.56;83.91;99547.06;4904125;28;102630;-66
2024/02/19 04:28:56;;;;;;;3.67;1.80;;;;;;;8.59;83.55;99550.28;4892557;28;103381;-66
2024/02/19 04:31:24;;;;;;;3.30;1.45;;;;;;;8.67;83.51;99552.22;4900454;28;104191;-66
2024/02/19 04:33:52;;;;;;;2.40;1.67;;;;;;;8.63;82.81;99558.75;4904007;28;102970;-66
2024/02/19 04:36:20;;;;;;;5.40;2.10;;;;;;;8.56;83.51;99558.44;4886946;28;102717;-66
2024/02/19 04:38:48;;;;;;;3.33;1.77;;;;;;;8.60;83.31;99549.28;4895940;28;102908;-66
2024/02/19 04:41:16;;;;;;;3.83;1.98;;;;;;;8.54;83.32;99564.84;4894206;28;103317;-66
2024/02/19 04:43:44;;;;;;;3.25;1.75;;;;;;;8.53;82.70;99574.56;4903749;28;103317;-66
2024/02/19 04:46:13;;;;;;;5.18;2.13;;;;;;;8.54;82.37;99570.13;4886202;28;102701;-66
2024/02/19 04:48:44;;;;;;;3.90;2.08;;;;;;;8.51;82.34;99573.03;4897676;28;104194;-65
2024/02/19 04:51:12;;;;;;;5.35;1.70;;;;;;;8.45;82.62;99569.97;4902855;28;103315;-64
2024/02/19 04:53:40;;;;;;;4.20;1.90;;;;;;;8.41;82.46;99570.31;4902348;28;103112;-65
2024/02/19 04:56:08;;;;;;;5.70;2.00;;;;;;;8.40;82.88;99572.13;4892224;28;103053;-65
2024/02/19 04:58:36;;;;;;;5.03;2.10;;;;;;;8.33;82.58;99568.31;4898725;28;102942;-64
2024/02/19 05:01:04;;;;;;;5.95;2.17;;;;;;;8.29;82.39;99582.75;4895519;28;103363;-64
2024/02/19 05:03:33;;;;;;;5.85;2.20;;;;;;;8.28;82.78;99581.94;4898613;28;103360;-64
2024/02/19 05:06:02;;;;;;;6.10;2.22;;;;;;;8.27;82.49;99584.72;4900643;28;102501;-65
2024/02/19 05:08:30;;;;;;;9.73;2.63;;;;;;;8.20;81.52;99579.13;4892661;28;102882;-65
2024/02/19 05:10:58;;;;;;;3.92;2.00;;;;;;;8.30;81.66;99581.81;4893717;28;104340;-65
2024/02/19 05:13:26;;;;;;;6.60;2.80;;;;;;;8.25;81.41;99586.63;4894414;28;104093;-65
2024/02/19 05:15:56;;;;;;;9.13;2.50;;;;;;;8.21;81.32;99587.88;4895261;28;102654;-61
2024/02/19 05:18:24;;;;;;;8.13;2.97;;;;;;;8.27;81.23;99584.72;4877362;28;102933;-65
2024/02/19 05:20:54;;;;;;;8.73;2.88;;;;;;;8.23;80.95;99585.94;4889395;28;103428;-65
2024/02/19 05:23:22;;;;;;;6.10;2.95;;;;;;;8.26;81.23;99593.59;4875576;28;104431;-65
2024/02/19 05:25:53;;;;;;;5.45;2.53;;;;;;;8.13;80.76;99594.66;4880337;28;102753;-65
2024/02/19 05:28:21;;;;;;;8.13;2.88;;;;;;;8.19;80.99;99593.28;4890557;28;103986;-65
2024/02/19 05:30:49;;;;;;;8.70;2.88;;;;;;;8.17;80.76;99604.94;4891369;28;103258;-66
2024/02/19 05:33:18;;;;;;;6.38;2.65;;;;;;;8.23;80.49;99593.88;4898664;28;103226;-65
2024/02/19 05:35:46;;;;;;;7.63;2.67;;;;;;;8.15;80.74;99599.78;4891413;28;102680;-66
2024/02/19 05:38:16;;;;;;;10.25;2.58;;;;;;;8.16;80.45;99592.69;4890119;28;102772;-65
2024/02/19 05:40:44;;;;;;;5.20;2.38;;;;;;;8.27;80.20;99595.28;4891153;28;103351;-66
2024/02/19 05:43:12;;;;;;;4.70;2.10;;;;;;;8.26;80.36;99596.22;4883792;28;103315;-66
2024/02/19 05:45:41;;;;;;;7.63;2.05;;;;;;;8.24;79.39;99600.78;4879744;28;102864;-66
2024/02/19 05:48:09;;;;;;;5.35;2.10;;;;;;;8.19;79.94;99602.97;4894267;28;103982;-66
2024/02/19 05:50:37;;;;;;;4.82;1.98;;;;;;;8.19;79.49;99609.13;4896794;28;103198;-67
2024/02/19 05:53:06;;;;;;;4.60;2.22;;;;;;;8.22;79.72;99602.75;4903237;28;104172;-66
2024/02/19 05:55:35;;;;;;;8.77;2.70;;;;;;;8.18;79.31;99607.44;4908945;28;102807;-66
2024/02/19 05:58:04;;;;;;;7.15;2.17;;;;;;;8.19;79.71;99602.97;4883371;28;102754;-67
2024/02/19 06:00:33;;;;;;;7.18;2.10;;;;;;;8.22;79.41;99610.66;4888237;28;103363;-67
2024/02/19 06:03:04;;;;;;;6.18;2.28;;;;;;;8.17;79.62;99610.22;4870378;28;103072;-66
2024/02/19 06:05:32;;;;;;;7.93;2.85;;;;;;;8.14;79.43;99612.13;4889060;28;103198;-66
2024/02/19 06:08:00;;;;;;;6.50;2.10;;;;;;;8.18;79.96;99618.00;4877786;28;102870;-67
2024/02/19 06:10:31;;;;;;;8.55;2.90;;;;;;;8.17;79.82;99620.78;4882625;28;103332;-66
2024/02/19 06:13:00;;;;;;;3.10;1.77;;;;;;;8.08;78.65;99620.59;4881453;28;103304;-66
2024/02/19 06:15:34;;;;;;;10.07;2.40;;;;;;;8.11;79.38;99619.50;4894176;28;104583;-66
2024/02/19 06:18:02;;;;;;;4.20;1.58;;;;;;;8.25;78.97;99628.88;4891757;28;103874;-66
2024/02/19 06:20:30;;;;;;;7.75;2.33;;;;;;;8.25;78.99;99639.41;4892466;28;103258;-67
2024/02/19 06:22:58;;;;;;;5.38;1.80;;;;;;;8.17;78.54;99631.31;4890331;28;102947;-66
2024/02/19 06:25:26;;;;;;;7.32;2.10;;;;;;;8.11;78.43;99630.06;4893908;28;102902;-66
2024/02/19 06:28:02;;;;;;;7.63;1.73;;;;;;;8.09;79.12;99635.44;4890933;28;102829;-66
2024/02/19 06:30:41;;;;;;;5.97;2.10;;;;;;;8.18;78.59;99641.75;4891634;28;103251;-66
2024/02/19 06:33:09;;;;;;;5.78;2.10;;;;;;;8.19;79.06;99650.50;4885095;28;103238;-66
2024/02/19 06:35:37;;;;;;;7.97;1.80;;;;;;;8.24;79.35;99653.56;4894235;28;103065;-67
2024/02/19 06:38:05;;;;;;;8.32;2.20;;;;;;;8.10;78.61;99655.56;4891922;28;104094;-67
2024/02/19 06:40:33;;;;;;;5.65;1.95;;;;;;;8.07;78.79;99655.84;4893736;28;103407;-67
2024/02/19 06:43:01;;;;;;;5.70;1.90;;;;;;;8.26;78.75;99663.03;4893421;28;103205;-67
2024/02/19 06:45:29;;;;;;;4.28;1.90;;;;;;;8.20;79.29;99666.22;4892202;28;103072;-67
2024/02/19 06:47:59;;;;;;;5.78;2.33;;;;;;;8.20;78.32;99668.84;4893654;28;103714;-67
2024/02/19 06:50:27;;;;;;;6.55;2.83;;;;;;;8.30;78.70;99669.75;4892242;28;102995;-67
2024/02/19 06:52:55;;;;;;;8.68;2.30;;;;;;;8.18;78.83;99688.41;4887169;28;103494;-67
2024/02/19 06:55:23;;;;;;;6.43;1.77;;;;;;;8.24;79.02;99686.09;4893221;28;102649;-67
2024/02/19 06:57:51;;;;;;;5.15;2.00;;;;;;;8.33;78.69;99688.94;4849933;28;104080;-67
2024/02/19 07:00:19;;;;;;;4.00;1.90;;;;;;;8.19;78.97;99688.28;4889252;28;104155;-69
2024/02/19 07:02:47;;;;;;;4.30;1.83;;;;;;;8.34;78.66;99688.78;4882064;28;103232;-69
2024/02/19 07:05:19;;;;;;;3.10;1.58;;;;;;;8.36;78.80;99691.28;4889037;28;103012;-69
2024/02/19 07:07:49;;;;;;;5.90;1.75;;;;;;;8.20;78.73;99683.84;4906709;28;102828;-69
2024/02/19 07:10:17;;;;;;;3.78;1.60;;;;;;;8.27;77.92;99687.66;4870763;28;104425;-67
2024/02/19 07:12:45;;;;;;;4.07;1.75;;;;;;;8.42;78.13;99691.63;4877216;28;103193;-67
2024/02/19 07:15:14;;;;;;;7.53;1.95;;;;;;;8.42;77.70;99686.34;4893649;28;102721;-67
2024/02/19 07:17:41;;;;;;;6.68;1.90;;;;;;;8.30;77.96;99698.78;4895487;28;102815;-67
2024/02/19 07:20:10;;;;;;;6.90;1.80;;;;;;;8.33;77.68;99702.13;4885012;28;104167;-68
2024/02/19 07:22:40;;;;;;;8.40;1.80;;;;;;;8.51;77.29;99702.41;4886668;28;104335;-67
2024/02/19 07:25:10;;;;;;;3.83;1.75;;;;;;;8.39;77.56;99707.72;4889795;28;103992;-67
2024/02/19 07:27:48;;;;;;;4.32;1.40;;;;;;;8.27;75.93;99711.41;4898659;28;103208;-67
2024/02/19 07:30:16;;;;;;;6.18;1.42;;;;;;;8.30;77.43;99722.53;4889533;28;104285;-67
2024/02/19 07:32:48;;;;;;;5.13;1.42;;;;;;;8.30;77.02;99719.06;4897457;28;103033;-68
2024/02/19 07:35:16;;;;;;;4.15;1.45;;;;;;;8.41;77.05;99719.00;4898347;28;102683;-67
2024/02/19 07:37:46;;;;;;;4.82;1.38;;;;;;;8.35;77.04;99726.59;4900038;28;104234;-67
2024/02/19 07:40:14;;;;;;;6.10;1.58;;;;;;;8.42;76.81;99720.69;4897052;28;103979;-70
2024/02/19 07:42:42;;;;;;;5.38;1.63;;;;;;;8.39;76.78;99718.28;4897702;28;103323;-70
2024/02/19 07:45:11;;;;;;;4.32;1.40;;;;;;;8.39;76.72;99725.38;4869413;28;102853;-70
2024/02/19 07:47:41;;;;;;;6.45;1.42;;;;;;;8.36;76.53;99733.53;4898259;28;103916;-69
2024/02/19 07:50:10;;;;;;;4.88;1.38;;;;;;;8.50;75.78;99735.06;4879943;28;104034;-70
2024/02/19 07:52:38;;;;;;;5.68;1.30;;;;;;;8.53;75.68;99737.44;4873513;28;104695;-69
2024/02/19 07:55:11;;;;;;;5.55;1.40;;;;;;;8.40;74.79;99738.44;4896166;28;102743;-69
2024/02/19 07:57:39;;;;;;;6.53;1.80;;;;;;;8.52;75.22;99749.81;4893422;28;104218;-70
2024/02/19 08:00:09;;;;;;;5.93;1.30;;;;;;;8.50;75.22;99753.53;4885320;28;103945;-69
2024/02/19 08:02:37;;;;;;;3.33;1.02;;;;;;;8.53;74.94;99754.13;4897918;28;103271;-69
2024/02/19 08:05:08;;;;;;;6.72;1.30;;;;;;;8.57;74.31;99755.53;4894429;28;102730;-70
2024/02/19 08:07:36;;;;;;;3.95;1.20;;;;;;;8.63;74.58;99759.44;4884835;28;103063;-68
2024/02/19 08:10:05;;;;;;;5.10;1.30;;;;;;;8.46;72.53;99764.38;4863503;28;104127;-68
2024/02/19 08:12:35;;;;;;;2.60;1.00;;;;;;;8.48;73.44;99756.31;4894964;28;103316;-66
2024/02/19 08:15:10;;;;;;;7.20;1.10;;;;;;;8.35;73.13;99751.19;4879116;28;102678;-66
2024/02/19 08:17:38;;;;;;;6.13;1.20;;;;;;;8.48;72.94;99751.03;4898443;28;103097;-66
2024/02/19 08:20:09;;;;;;;5.40;0.90;;;;;;;8.38;71.63;99760.66;4897021;28;104156;-65
2024/02/19 08:22:42;;;;;;;3.95;0.90;;;;;;;8.51;72.92;99765.78;4894211;28;104385;-66
2024/02/19 08:25:14;;;;;;;2.15;0.82;;;;;;;8.58;72.51;99764.28;4894538;28;102599;-67
2024/02/19 08:27:43;;;;;;;3.22;0.80;;;;;;;8.73;72.40;99773.56;4896569;28;103152;-68
2024/02/19 08:30:12;;;;;;;2.72;0.85;;;;;;;8.83;71.81;99775.41;4906353;28;104188;-68
2024/02/19 08:32:41;;;;;;;4.70;1.05;;;;;;;8.76;71.98;99772.47;4879373;28;103417;-68
2024/02/19 08:35:09;;;;;;;3.08;0.95;;;;;;;8.66;71.32;99780.34;4886753;28;102589;-67
2024/02/19 08:37:38;;;;;;;5.53;1.63;;;;;;;8.76;71.35;99785.66;4868293;28;103684;-68
2024/02/19 08:40:07;;;;;;;3.97;0.93;;;;;;;8.87;70.76;99782.97;4892901;28;104316;-66
2024/02/19 08:42:36;;;;;;;6.38;1.02;;;;;;;8.79;71.02;99786.25;4900237;28;103214;-66
2024/02/19 08:45:08;;;;;;;2.90;1.05;;;;;;;8.72;70.97;99785.09;4880893;28;102772;-67
2024/02/19 08:47:36;;;;;;;2.78;1.33;;;;;;;8.81;71.29;99799.31;4895008;28;104305;-67
2024/02/19 08:50:08;;;;;;;5.20;0.88;;;;;;;8.71;70.19;99804.56;4898099;28;104124;-67
2024/02/19 08:52:36;;;;;;;4.47;1.10;;;;;;;8.84;70.96;99809.63;4899177;28;103179;-67
2024/02/19 08:55:07;;;;;;;3.97;1.02;;;;;;;8.81;71.09;99809.91;4890466;28;102654;-67
2024/02/19 08:57:35;;;;;;;2.40;0.98;;;;;;;8.76;70.44;99812.94;4898098;28;102763;-66
2024/02/19 09:00:07;;;;;;;6.43;1.33;;;;;;;8.66;69.94;99809.38;4891620;28;103830;-66
2024/02/19 09:02:35;;;;;;;3.33;0.98;;;;;;;8.70;70.28;99820.50;4896539;28;103215;-68
2024/02/19 09:05:04;;;;;;;3.17;1.00;;;;;;;8.75;70.28;99820.97;4895766;28;102626;-69
2024/02/19 09:07:32;;;;;;;3.95;0.93;;;;;;;8.62;70.05;99823.81;4897202;28;104175;-68
2024/02/19 09:10:01;;;;;;;4.95;1.17;;;;;;;8.66;70.37;99822.59;4897260;28;103309;-69
2024/02/19 09:12:29;;;;;;;5.43;1.02;;;;;;;8.69;69.58;99817.03;4895539;28;103285;-68
2024/02/19 09:14:59;;;;;;;4.07;0.82;;;;;;;8.87;69.80;99821.72;4893865;28;102693;-69
2024/02/19 09:17:28;;;;;;;5.05;1.20;;;;;;;8.99;69.95;99810.16;4878093;28;102857;-66
2024/02/19 09:19:56;;;;;;;6.97;1.20;;;;;;;9.04;69.17;99813.25;4887048;28;103945;-66
2024/02/19 09:22:26;;;;;;;5.68;1.00;;;;;;;9.01;69.32;99818.75;4897406;28;103306;-66
2024/02/19 09:24:55;;;;;;;7.13;0.90;;;;;;;9.06;69.20;99818.38;4891477;28;103181;-66
2024/02/19 09:27:24;;;;;;;5.32;1.20;;;;;;;8.89;67.96;99811.88;4897565;28;104076;-67
2024/02/19 09:29:52;;;;;;;4.50;0.82;;;;;;;8.91;69.22;99809.97;4900164;28;103307;-68
2024/02/19 09:32:20;;;;;;;5.93;1.17;;;;;;;9.08;68.31;99808.53;4890868;28;104182;-67
2024/02/19 09:34:50;;;;;;;5.90;0.98;;;;;;;8.98;68.02;99816.41;4897648;28;103068;-66
2024/02/19 09:37:18;;;;;;;6.13;1.02;;;;;;;8.97;68.28;99814.72;4895563;28;104290;-66
2024/02/19 09:39:49;;;;;;;8.05;1.08;;;;;;;9.02;68.53;99817.81;4884623;28;108247;-65
2024/02/19 09:42:17;;;;;;;6.93;1.20;;;;;;;9.04;68.58;99820.31;4897735;28;103297;-66
2024/02/19 09:44:46;;;;;;;4.65;1.02;;;;;;;9.34;67.70;99822.16;4898614;28;103078;-65
2024/02/19 09:47:20;;;;;;;8.30;1.98;;;;;;;9.27;67.67;99826.28;4905645;28;102626;-66
2024/02/19 09:49:53;;;;;;;7.75;1.02;;;;;;;9.48;67.99;99823.59;4893398;28;103987;-68
2024/02/19 09:52:27;;;;;;;6.30;1.23;;;;;;;9.53;66.97;99828.47;4905976;28;103190;-65
2024/02/19 09:55:00;;;;;;;6.30;1.10;;;;;;;9.37;67.30;99840.38;4903599;28;102981;-67
2024/02/19 09:57:29;;;;;;;5.30;1.08;;;;;;;9.45;67.08;99837.91;4906544;28;102858;-65
2024/02/19 10:00:03;;;;;;;4.72;1.00;;;;;;;9.45;67.51;99837.91;4903080;28;103236;-68
2024/02/19 10:02:33;;;;;;;4.05;1.08;;;;;;;9.50;67.48;99844.59;4902305;28;103273;-65
2024/02/19 10:05:07;;;;;;;7.05;1.00;;;;;;;9.55;67.49;99845.03;4863872;28;102818;-66
2024/02/19 10:07:35;;;;;;;9.25;1.48;;;;;;;9.53;67.22;99853.09;4904648;28;103463;-66
2024/02/19 10:10:05;;;;;;;3.35;1.17;;;;;;;9.58;67.22;99850.09;4904964;28;103775;-66
2024/02/19 10:12:34;;;;;;;4.70;1.67;;;;;;;9.76;67.17;99852.91;4903307;28;103230;-66
2024/02/19 10:15:04;;;;;;;5.25;1.23;;;;;;;9.69;67.07;99862.38;4905017;28;102606;-68
2024/02/19 10:17:38;;;;;;;6.03;1.35;;;;;;;9.73;66.18;99859.34;4907911;28;102653;-67
2024/02/19 10:20:12;;;;;;;8.23;1.85;;;;;;;9.58;66.82;99858.00;4905257;28;103996;-67
2024/02/19 10:22:46;;;;;;;5.55;1.52;;;;;;;9.59;66.83;99865.00;4905513;28;103255;-67
2024/02/19 10:25:16;;;;;;;6.05;1.20;;;;;;;9.59;67.32;99868.47;4901766;28;102663;-66
2024/02/19 10:27:46;;;;;;;5.43;1.25;;;;;;;9.63;67.13;99859.28;4878684;28;104373;-67
2024/02/19 10:30:15;;;;;;;6.28;1.35;;;;;;;9.55;67.89;99861.75;4883990;28;103256;-66
2024/02/19 10:32:45;;;;;;;6.72;1.38;;;;;;;9.53;67.71;99873.44;4892562;28;103356;-66
2024/02/19 10:35:15;;;;;;;3.72;0.93;;;;;;;9.31;67.19;99872.63;4888895;28;102763;-66
2024/02/19 10:37:44;;;;;;;7.28;1.48;;;;;;;9.34;67.40;99879.47;4897656;28;104159;-66
2024/02/19 10:40:17;;;;;;;6.07;1.20;;;;;;;9.39;66.75;99871.97;4906198;28;104399;-66
2024/02/19 10:42:47;;;;;;;6.38;1.25;;;;;;;9.43;66.80;99879.53;4894342;28;103281;-67
2024/02/19 10:45:17;;;;;;;5.47;1.10;;;;;;;9.32;65.86;99876.97;4895537;28;102726;-67
2024/02/19 10:47:46;;;;;;;5.13;1.00;;;;;;;9.17;66.74;99883.53;4907326;28;103307;-66
2024/02/19 10:50:18;;;;;;;7.65;1.63;;;;;;;8.95;66.70;99882.72;4872806;28;103211;-68
2024/02/19 10:52:47;;;;;;;8.15;1.52;;;;;;;9.32;66.67;99884.06;4897976;28;103239;-68
2024/02/19 10:55:22;;;;;;;7.40;1.40;;;;;;;9.40;66.93;99879.78;4893728;28;102647;-68
2024/02/19 10:58:24;;;;;;;4.22;1.08;;;;;;;9.13;65.81;99875.88;4900798;28;102730;-66
2024/02/19 11:01:01;;;;;;;4.97;1.20;;;;;;;9.35;66.15;99875.84;4903893;28;104441;-67
2024/02/19 11:03:45;;;;;;;6.90;1.23;;;;;;;9.54;65.95;99873.31;4899555;28;103249;-67
2024/02/19 11:06:17;;;;;;;4.75;1.20;;;;;;;9.41;66.33;99873.53;4897288;28;102657;-68
2024/02/19 11:08:55;;;;;;;5.55;1.52;;;;;;;9.82;65.80;99867.44;4884678;28;104300;-67
2024/02/19 11:11:26;;;;;;;3.92;1.00;;;;;;;9.91;66.31;99853.38;4919122;28;104154;-68
2024/02/19 11:13:57;;;;;;;7.03;1.48;;;;;;;9.93;65.69;99859.34;4878623;28;104194;-67
2024/02/19 11:16:27;;;;;;;8.63;1.70;;;;;;;9.84;65.75;99858.38;4888896;28;102636;-67
2024/02/19 11:18:59;;;;;;;6.38;1.10;;;;;;;9.84;65.81;99858.38;4902136;28;102710;-66
2024/02/19 11:21:32;;;;;;;5.75;1.30;;;;;;;9.71;65.45;99849.84;4904679;28;104203;-68
2024/02/19 11:24:20;;;;;;;6.18;1.02;;;;;;;9.63;64.89;99842.59;4896625;28;103108;-66
2024/02/19 11:26:52;;;;;;;4.72;1.02;;;;;;;9.58;64.90;99852.72;4887169;28;102728;-66
2024/02/19 11:29:21;;;;;;;3.35;1.27;;;;;;;9.54;64.42;99843.38;4897903;28;104337;-66
2024/02/19 11:32:01;;;;;;;6.88;1.27;;;;;;;9.53;65.02;99837.25;4889398;28;103259;-66
2024/02/19 11:34:30;;;;;;;6.25;1.15;;;;;;;9.59;65.52;99836.72;4886987;28;103117;-66
2024/02/19 11:37:04;;;;;;;3.70;0.85;;;;;;;9.79;65.55;99829.66;4890517;28;103033;-66
2024/02/19 11:39:34;;;;;;;5.35;1.23;;;;;;;9.91;65.49;99822.44;4895786;28;102875;-66
2024/02/19 11:42:05;;;;;;;7.07;1.20;;;;;;;9.87;64.53;99822.88;4897863;28;103299;-65
2024/02/19 11:44:36;;;;;;;5.22;1.00;;;;;;;9.90;65.61;99817.31;4903689;28;104489;-67